Time;durP1;ratioP1;P1;durP2;ratioP2;P2;SDS_P1;SDS_P2;PMS_P1;PMS_P2;Temp;Humidity;BMP_temperature;BMP_pressure;BME280_temperature;BME280_humidity;BME280_pressure;Samples;Min_cycle;Max_cycle;Signal;HPM_P1;HPM_P2
2022/12/01 00:01:46;;;;;;;123.00;37.72;;;;;;;;;;6214197;22;20055;-89
2022/12/01 00:04:12;;;;;;;107.38;34.85;;;;;;;;;;6189807;23;20016;-89
2022/12/01 00:06:38;;;;;;;111.28;36.10;;;;;;;;;;6214636;23;20008;-89
2022/12/01 00:11:49;;;;;;;104.70;35.17;;;;;;;;;;6220582;23;20491;-89
2022/12/01 00:14:15;;;;;;;116.28;36.83;;;;;;;;;;6217221;23;20016;-89
2022/12/01 00:16:43;;;;;;;106.25;35.53;;;;;;;;;;6216984;23;20016;-89
2022/12/01 00:19:09;;;;;;;105.80;37.90;;;;;;;;;;6216183;23;20045;-89
2022/12/01 00:21:35;;;;;;;111.15;34.80;;;;;;;;;;6217130;23;20008;-89
2022/12/01 00:24:01;;;;;;;109.75;35.92;;;;;;;;;;6216229;23;20004;-89
2022/12/01 00:26:27;;;;;;;104.45;34.95;;;;;;;;;;6216510;23;20467;-89
2022/12/01 00:28:54;;;;;;;118.43;34.95;;;;;;;;;;6243129;23;20012;-89
2022/12/01 00:31:20;;;;;;;117.03;36.83;;;;;;;;;;6243923;23;20464;-90
2022/12/01 00:33:47;;;;;;;117.80;35.00;;;;;;;;;;6216134;23;20525;-90
2022/12/01 00:36:13;;;;;;;117.35;34.13;;;;;;;;;;6215229;23;20380;-90
2022/12/01 00:38:39;;;;;;;114.95;35.65;;;;;;;;;;6215858;23;20455;-89
2022/12/01 00:41:05;;;;;;;112.38;38.42;;;;;;;;;;6244269;23;20008;-90
2022/12/01 00:43:31;;;;;;;113.63;37.33;;;;;;;;;;6216085;23;20005;-89
2022/12/01 00:45:57;;;;;;;109.18;33.97;;;;;;;;;;6217027;23;20008;-89
2022/12/01 00:48:23;;;;;;;110.13;34.90;;;;;;;;;;6216892;23;20020;-89
2022/12/01 00:50:53;;;;;;;116.03;35.85;;;;;;;;;;6216528;23;20012;-90
2022/12/01 00:53:19;;;;;;;122.93;37.53;;;;;;;;;;6215527;23;20633;-90
2022/12/01 00:55:45;;;;;;;105.60;35.80;;;;;;;;;;6242721;23;20665;-89
2022/12/01 00:58:11;;;;;;;120.05;37.03;;;;;;;;;;6217275;23;20724;-89
2022/12/01 01:00:41;;;;;;;122.65;38.35;;;;;;;;;;6215357;23;20004;-89
2022/12/01 01:03:08;;;;;;;118.53;38.03;;;;;;;;;;6216270;22;20035;-89
2022/12/01 01:05:38;;;;;;;120.90;37.38;;;;;;;;;;6216851;23;20008;-89
2022/12/01 01:08:11;;;;;;;116.88;37.90;;;;;;;;;;6215589;23;20012;-89
2022/12/01 01:10:41;;;;;;;97.95;34.40;;;;;;;;;;6216422;23;20008;-89
2022/12/01 01:13:07;;;;;;;106.75;36.25;;;;;;;;;;6215086;23;20008;-89
2022/12/01 01:15:33;;;;;;;114.40;36.38;;;;;;;;;;6215906;23;20491;-89
2022/12/01 01:17:59;;;;;;;117.05;36.15;;;;;;;;;;6215122;23;20341;-89
2022/12/01 01:20:25;;;;;;;129.88;39.38;;;;;;;;;;6216029;23;20428;-89
2022/12/01 01:22:51;;;;;;;120.15;38.63;;;;;;;;;;6215283;23;20036;-89
2022/12/01 01:25:17;;;;;;;109.45;34.75;;;;;;;;;;6216090;23;20047;-89
2022/12/01 01:27:43;;;;;;;116.15;38.38;;;;;;;;;;6216009;23;20043;-89
2022/12/01 01:30:10;;;;;;;126.63;40.38;;;;;;;;;;6216272;23;20008;-89
2022/12/01 01:32:36;;;;;;;113.63;38.22;;;;;;;;;;6210322;23;20012;-89
2022/12/01 01:35:02;;;;;;;116.10;36.08;;;;;;;;;;6215554;23;20532;-89
2022/12/01 01:37:28;;;;;;;126.05;36.97;;;;;;;;;;6216375;23;20433;-89
2022/12/01 01:39:54;;;;;;;112.82;35.85;;;;;;;;;;6216318;23;20541;-89
2022/12/01 01:42:20;;;;;;;130.15;38.33;;;;;;;;;;6216157;23;20441;-89
2022/12/01 01:44:48;;;;;;;108.43;35.33;;;;;;;;;;6240927;23;20425;-89
2022/12/01 01:47:17;;;;;;;119.35;39.28;;;;;;;;;;6217126;23;20011;-89
2022/12/01 01:49:43;;;;;;;122.55;37.50;;;;;;;;;;6215502;23;20070;-89
2022/12/01 01:52:09;;;;;;;116.95;37.55;;;;;;;;;;6215780;23;20024;-89
2022/12/01 01:54:37;;;;;;;113.50;36.60;;;;;;;;;;6214855;23;20018;-89
2022/12/01 01:57:05;;;;;;;112.38;36.17;;;;;;;;;;6215559;23;20004;-89
2022/12/01 01:59:33;;;;;;;112.88;35.25;;;;;;;;;;6216181;23;20380;-89
2022/12/01 02:02:05;;;;;;;110.18;35.78;;;;;;;;;;6215334;22;20020;-89
2022/12/01 02:04:39;;;;;;;110.28;37.63;;;;;;;;;;6240349;22;20022;-89
2022/12/01 02:07:06;;;;;;;116.43;37.28;;;;;;;;;;6215219;23;20019;-89
2022/12/01 02:09:32;;;;;;;127.35;37.33;;;;;;;;;;6215559;23;20000;-90
2022/12/01 02:12:01;;;;;;;120.68;37.20;;;;;;;;;;6214637;23;20429;-89
2022/12/01 02:14:45;;;;;;;120.53;35.90;;;;;;;;;;6214686;23;20000;-89
2022/12/01 02:17:11;;;;;;;114.75;35.85;;;;;;;;;;6241425;23;20000;-89
2022/12/01 02:19:37;;;;;;;129.27;39.03;;;;;;;;;;6213712;23;20329;-89
2022/12/01 02:22:03;;;;;;;122.82;36.60;;;;;;;;;;6215716;23;20012;-89
2022/12/01 02:24:29;;;;;;;114.82;37.38;;;;;;;;;;6241104;23;20000;-89
2022/12/01 02:27:04;;;;;;;109.20;37.00;;;;;;;;;;6216590;23;20028;-89
2022/12/01 02:29:55;;;;;;;109.80;37.83;;;;;;;;;;6213756;23;20463;-89
2022/12/01 02:32:30;;;;;;;120.15;39.28;;;;;;;;;;6212769;23;20054;-89
2022/12/01 02:34:58;;;;;;;121.07;38.05;;;;;;;;;;6212903;23;20012;-89
2022/12/01 02:37:36;;;;;;;112.18;37.25;;;;;;;;;;6213569;23;20040;-89
2022/12/01 02:40:28;;;;;;;126.32;37.97;;;;;;;;;;6214769;23;20019;-89
2022/12/01 02:43:04;;;;;;;112.38;37.08;;;;;;;;;;6181394;23;20012;-89
2022/12/01 02:45:36;;;;;;;129.50;38.00;;;;;;;;;;6214445;23;20008;-90
2022/12/01 02:48:04;;;;;;;112.03;35.50;;;;;;;;;;6216065;23;20015;-89
2022/12/01 02:50:31;;;;;;;133.88;40.35;;;;;;;;;;6240887;23;20316;-89
2022/12/01 02:52:58;;;;;;;120.18;37.78;;;;;;;;;;6215873;23;20004;-89
2022/12/01 02:55:24;;;;;;;126.72;38.75;;;;;;;;;;6213971;23;20004;-89
2022/12/01 02:57:50;;;;;;;116.70;37.60;;;;;;;;;;6216442;23;20012;-89
2022/12/01 03:00:17;;;;;;;114.05;38.72;;;;;;;;;;6215308;23;20601;-89
2022/12/01 03:02:50;;;;;;;121.45;38.35;;;;;;;;;;6216233;22;20343;-89
2022/12/01 03:05:25;;;;;;;124.07;37.88;;;;;;;;;;6213720;23;20015;-89
2022/12/01 03:07:51;;;;;;;131.02;39.13;;;;;;;;;;6215158;23;20544;-89
2022/12/01 03:10:41;;;;;;;124.47;36.55;;;;;;;;;;6240469;23;20000;-89
2022/12/01 03:13:18;;;;;;;127.82;37.85;;;;;;;;;;6241439;23;20444;-89
2022/12/01 03:16:02;;;;;;;133.40;40.70;;;;;;;;;;6242214;23;20387;-89
2022/12/01 03:18:32;;;;;;;129.73;39.00;;;;;;;;;;6214962;23;20000;-89
2022/12/01 03:20:58;;;;;;;137.02;38.17;;;;;;;;;;6213855;23;20317;-89
2022/12/01 03:23:26;;;;;;;120.40;37.65;;;;;;;;;;6216378;23;20014;-89
2022/12/01 03:25:54;;;;;;;128.00;38.40;;;;;;;;;;6210662;23;20628;-90
2022/12/01 03:28:27;;;;;;;130.25;38.72;;;;;;;;;;6214805;23;20016;-89
2022/12/01 03:30:54;;;;;;;129.20;40.67;;;;;;;;;;6216044;23;20019;-89
2022/12/01 03:33:26;;;;;;;129.18;38.92;;;;;;;;;;6215358;23;20020;-90
2022/12/01 03:35:58;;;;;;;137.57;40.08;;;;;;;;;;6215726;23;20019;-89
2022/12/01 03:38:26;;;;;;;127.38;38.30;;;;;;;;;;6212524;23;20066;-89
2022/12/01 03:40:54;;;;;;;136.35;39.38;;;;;;;;;;6215052;23;20008;-89
2022/12/01 03:43:26;;;;;;;134.75;40.28;;;;;;;;;;6215077;23;20038;-89
2022/12/01 03:45:55;;;;;;;139.93;40.88;;;;;;;;;;6215744;23;20008;-90
2022/12/01 03:48:22;;;;;;;139.27;38.17;;;;;;;;;;6217096;23;20419;-89
2022/12/01 03:50:51;;;;;;;125.47;38.75;;;;;;;;;;6242616;23;20113;-89
2022/12/01 03:53:19;;;;;;;126.15;38.65;;;;;;;;;;6243996;23;20008;-89
2022/12/01 03:55:50;;;;;;;133.60;38.75;;;;;;;;;;6215618;23;20432;-89
2022/12/01 03:58:20;;;;;;;124.20;38.58;;;;;;;;;;6216250;23;20012;-89
2022/12/01 04:00:48;;;;;;;129.95;40.80;;;;;;;;;;6214193;23;20037;-89
2022/12/01 04:03:19;;;;;;;121.43;36.95;;;;;;;;;;6209458;23;20015;-89
2022/12/01 04:05:45;;;;;;;121.25;38.97;;;;;;;;;;6211807;23;20428;-89
2022/12/01 04:08:11;;;;;;;116.18;37.08;;;;;;;;;;6215061;23;20008;-90
2022/12/01 04:10:37;;;;;;;130.50;38.45;;;;;;;;;;6216579;23;20479;-89
2022/12/01 04:13:03;;;;;;;122.47;39.47;;;;;;;;;;6214856;23;20019;-89
2022/12/01 04:15:29;;;;;;;120.80;39.00;;;;;;;;;;6216397;23;20012;-89
2022/12/01 04:17:55;;;;;;;115.90;36.92;;;;;;;;;;6217625;23;20080;-89
2022/12/01 04:20:21;;;;;;;134.15;39.45;;;;;;;;;;6241818;23;20030;-89
2022/12/01 04:22:48;;;;;;;122.00;37.65;;;;;;;;;;6216484;23;20000;-89
2022/12/01 04:25:14;;;;;;;118.95;37.33;;;;;;;;;;6243079;23;20011;-89
2022/12/01 04:27:40;;;;;;;132.55;41.38;;;;;;;;;;6215587;23;20039;-89
2022/12/01 04:30:06;;;;;;;120.57;38.97;;;;;;;;;;6216264;23;20016;-89
2022/12/01 04:32:36;;;;;;;123.50;37.50;;;;;;;;;;6215404;23;20015;-89
2022/12/01 04:35:02;;;;;;;119.53;38.13;;;;;;;;;;6215342;23;20340;-89
2022/12/01 04:37:28;;;;;;;117.13;37.47;;;;;;;;;;6214262;23;20062;-89
2022/12/01 04:39:54;;;;;;;119.30;37.95;;;;;;;;;;6214237;23;20012;-89
2022/12/01 04:42:20;;;;;;;124.25;37.80;;;;;;;;;;6214068;23;20019;-90
2022/12/01 04:44:46;;;;;;;117.03;36.65;;;;;;;;;;6214726;23;20004;-89
2022/12/01 04:47:12;;;;;;;130.13;39.03;;;;;;;;;;6240999;23;20027;-89
2022/12/01 04:49:38;;;;;;;117.63;38.65;;;;;;;;;;6211824;23;20015;-89
2022/12/01 04:52:04;;;;;;;104.35;34.95;;;;;;;;;;6240854;23;20008;-90
2022/12/01 04:54:30;;;;;;;109.05;34.88;;;;;;;;;;6211917;23;20011;-89
2022/12/01 04:56:56;;;;;;;130.32;38.13;;;;;;;;;;6214104;23;20019;-89
2022/12/01 04:59:22;;;;;;;125.43;36.65;;;;;;;;;;6216233;23;20027;-89
2022/12/01 05:01:49;;;;;;;115.53;36.42;;;;;;;;;;6216698;23;20760;-89
2022/12/01 05:04:21;;;;;;;121.60;36.30;;;;;;;;;;6215661;22;20338;-89
2022/12/01 05:06:47;;;;;;;122.40;35.65;;;;;;;;;;6216721;23;20038;-89
2022/12/01 05:09:14;;;;;;;117.30;36.83;;;;;;;;;;6216756;23;20057;-89
2022/12/01 05:11:40;;;;;;;109.35;35.10;;;;;;;;;;6217479;23;20008;-89
2022/12/01 05:14:06;;;;;;;114.13;36.72;;;;;;;;;;6215257;23;20016;-89
2022/12/01 05:16:33;;;;;;;125.60;37.65;;;;;;;;;;6216599;23;20008;-89
2022/12/01 05:21:49;;;;;;;124.88;38.60;;;;;;;;;;6242464;23;20443;-89
2022/12/01 05:24:15;;;;;;;126.80;37.97;;;;;;;;;;6216084;23;20008;-89
2022/12/01 05:26:42;;;;;;;118.97;37.70;;;;;;;;;;6216816;23;20012;-89
2022/12/01 05:29:10;;;;;;;124.40;36.03;;;;;;;;;;6215767;23;20007;-89
2022/12/01 05:31:36;;;;;;;119.85;35.75;;;;;;;;;;6215153;23;20043;-89
2022/12/01 05:34:02;;;;;;;116.57;37.80;;;;;;;;;;6213289;23;20008;-89
2022/12/01 05:36:28;;;;;;;116.63;35.05;;;;;;;;;;6243132;23;20015;-87
2022/12/01 05:38:54;;;;;;;116.53;35.38;;;;;;;;;;6218136;23;20456;-90
2022/12/01 05:41:20;;;;;;;110.20;33.90;;;;;;;;;;6218787;23;20058;-89
2022/12/01 05:43:46;;;;;;;108.22;35.53;;;;;;;;;;6243219;23;20051;-89
2022/12/01 05:46:12;;;;;;;124.40;35.85;;;;;;;;;;6215306;23;20338;-89
2022/12/01 05:48:38;;;;;;;120.18;37.83;;;;;;;;;;6216033;23;20012;-90
2022/12/01 05:51:11;;;;;;;150.40;47.40;;;;;;;;;;6215492;23;20094;-88
2022/12/01 05:53:38;;;;;;;123.50;36.20;;;;;;;;;;6214669;23;20004;-89
2022/12/01 05:56:04;;;;;;;127.40;37.05;;;;;;;;;;6216020;23;20344;-89
2022/12/01 05:58:30;;;;;;;126.32;37.25;;;;;;;;;;6217300;23;20015;-89
2022/12/01 06:00:56;;;;;;;130.15;36.35;;;;;;;;;;6214524;23;20004;-89
2022/12/01 06:03:29;;;;;;;122.07;35.22;;;;;;;;;;6216975;22;20019;-89
2022/12/01 06:05:55;;;;;;;111.90;34.00;;;;;;;;;;6215326;23;20023;-88
2022/12/01 06:08:21;;;;;;;136.23;37.53;;;;;;;;;;6213148;23;20638;-88
2022/12/01 06:10:47;;;;;;;141.48;38.40;;;;;;;;;;6212071;23;20472;-89
2022/12/01 06:13:13;;;;;;;140.63;37.83;;;;;;;;;;6212367;23;20015;-89
2022/12/01 06:15:39;;;;;;;135.07;37.67;;;;;;;;;;6215056;23;20020;-89
2022/12/01 06:18:05;;;;;;;128.75;36.50;;;;;;;;;;6215176;23;20008;-89
2022/12/01 06:20:31;;;;;;;132.82;37.88;;;;;;;;;;6214372;23;20061;-88
2022/12/01 06:22:58;;;;;;;136.10;35.80;;;;;;;;;;6215206;23;20062;-89
2022/12/01 06:25:24;;;;;;;119.53;36.13;;;;;;;;;;6214741;23;20008;-89
2022/12/01 06:27:54;;;;;;;133.32;36.10;;;;;;;;;;6215762;23;20018;-88
2022/12/01 06:30:20;;;;;;;113.88;35.72;;;;;;;;;;6242425;23;20082;-89
2022/12/01 06:32:46;;;;;;;136.70;37.55;;;;;;;;;;6214474;23;20558;-89
2022/12/01 06:35:12;;;;;;;134.05;35.65;;;;;;;;;;6214330;23;20102;-89
2022/12/01 06:37:38;;;;;;;126.85;34.47;;;;;;;;;;6215705;23;20031;-88
2022/12/01 06:40:05;;;;;;;125.32;36.33;;;;;;;;;;6212738;23;20058;-88
2022/12/01 06:42:31;;;;;;;132.43;36.03;;;;;;;;;;6214835;23;20019;-88
2022/12/01 06:44:57;;;;;;;124.53;35.90;;;;;;;;;;6216112;23;20008;-88
2022/12/01 06:47:23;;;;;;;112.28;34.08;;;;;;;;;;6215777;23;20008;-88
2022/12/01 06:49:49;;;;;;;113.13;33.42;;;;;;;;;;6214402;23;20023;-88
2022/12/01 06:52:15;;;;;;;114.68;36.55;;;;;;;;;;6216121;23;20016;-88
2022/12/01 06:54:41;;;;;;;134.43;37.15;;;;;;;;;;6210850;23;20052;-88
2022/12/01 06:57:07;;;;;;;119.45;33.30;;;;;;;;;;6212183;23;20380;-88
2022/12/01 06:59:33;;;;;;;117.45;34.95;;;;;;;;;;6210921;23;20008;-89
2022/12/01 07:01:59;;;;;;;115.40;34.00;;;;;;;;;;6212557;23;20428;-88
2022/12/01 07:04:32;;;;;;;114.20;34.28;;;;;;;;;;6212380;22;20280;-88
2022/12/01 07:06:58;;;;;;;110.90;34.53;;;;;;;;;;6213499;23;20444;-88
2022/12/01 07:09:24;;;;;;;96.82;31.17;;;;;;;;;;6212993;23;20664;-89
2022/12/01 07:11:50;;;;;;;104.70;32.25;;;;;;;;;;6213393;23;20004;-89
2022/12/01 07:14:23;;;;;;;113.95;32.63;;;;;;;;;;6240894;23;20008;-88
2022/12/01 07:16:49;;;;;;;123.88;33.88;;;;;;;;;;6239046;23;20060;-89
2022/12/01 07:19:16;;;;;;;113.70;32.20;;;;;;;;;;6212421;23;20453;-88
2022/12/01 07:21:42;;;;;;;106.72;31.25;;;;;;;;;;6237799;23;20306;-88
2022/12/01 07:24:08;;;;;;;104.15;31.85;;;;;;;;;;6212873;23;20348;-89
2022/12/01 07:26:34;;;;;;;95.28;29.58;;;;;;;;;;6212256;23;20012;-88
2022/12/01 07:29:00;;;;;;;91.18;26.67;;;;;;;;;;6240211;23;20004;-89
2022/12/01 07:31:26;;;;;;;89.40;26.75;;;;;;;;;;6209550;23;20012;-89
2022/12/01 07:33:52;;;;;;;71.75;23.35;;;;;;;;;;6209889;23;20034;-89
2022/12/01 07:36:18;;;;;;;77.70;22.27;;;;;;;;;;6237819;23;20494;-88
2022/12/01 07:38:44;;;;;;;73.88;22.50;;;;;;;;;;6210285;23;20143;-89
2022/12/01 07:41:12;;;;;;;64.03;20.63;;;;;;;;;;6208461;23;20537;-88
2022/12/01 07:43:38;;;;;;;61.78;20.73;;;;;;;;;;6211328;23;20005;-89
2022/12/01 07:46:05;;;;;;;65.03;21.42;;;;;;;;;;6210508;23;20039;-89
2022/12/01 07:48:31;;;;;;;58.42;20.33;;;;;;;;;;6211026;23;20004;-89
2022/12/01 07:50:57;;;;;;;67.18;19.83;;;;;;;;;;6209884;23;20548;-88
2022/12/01 07:53:23;;;;;;;59.22;19.50;;;;;;;;;;6210095;23;20016;-89
2022/12/01 07:55:50;;;;;;;61.58;18.63;;;;;;;;;;6209970;23;20009;-89
2022/12/01 07:58:16;;;;;;;64.15;18.80;;;;;;;;;;6210356;23;20164;-88
2022/12/01 08:00:42;;;;;;;66.55;18.58;;;;;;;;;;6209740;23;20507;-89
2022/12/01 08:03:08;;;;;;;58.67;18.08;;;;;;;;;;6211590;23;20004;-88
2022/12/01 08:05:34;;;;;;;54.40;18.45;;;;;;;;;;6209740;22;20020;-87
2022/12/01 08:08:01;;;;;;;45.40;16.80;;;;;;;;;;6237395;23;20216;-89
2022/12/01 08:10:27;;;;;;;50.80;18.05;;;;;;;;;;6210331;23;20011;-88
2022/12/01 08:12:53;;;;;;;57.20;16.85;;;;;;;;;;6211079;23;20012;-89
2022/12/01 08:15:19;;;;;;;48.00;16.42;;;;;;;;;;6210746;23;20020;-88
2022/12/01 08:17:45;;;;;;;49.42;16.33;;;;;;;;;;6211687;23;20009;-88
2022/12/01 08:20:11;;;;;;;44.38;16.70;;;;;;;;;;6210790;23;20012;-91
2022/12/01 08:22:37;;;;;;;52.58;16.23;;;;;;;;;;6214473;23;20012;-90
2022/12/01 08:25:03;;;;;;;48.92;15.82;;;;;;;;;;6215840;23;20023;-91
2022/12/01 08:27:33;;;;;;;48.42;17.17;;;;;;;;;;6213842;23;20012;-91
2022/12/01 08:29:59;;;;;;;41.00;16.25;;;;;;;;;;6215594;23;20008;-91
2022/12/01 08:32:25;;;;;;;52.03;17.42;;;;;;;;;;6215891;23;20019;-92
2022/12/01 08:34:51;;;;;;;47.42;15.57;;;;;;;;;;6216503;23;20112;-91
2022/12/01 08:37:17;;;;;;;42.00;15.98;;;;;;;;;;6216216;23;20012;-91
2022/12/01 08:39:43;;;;;;;49.55;16.58;;;;;;;;;;6215720;23;20100;-91
2022/12/01 08:42:10;;;;;;;48.80;15.98;;;;;;;;;;6217968;23;20015;-91
2022/12/01 08:44:36;;;;;;;42.88;15.82;;;;;;;;;;6216765;23;20012;-91
2022/12/01 08:47:02;;;;;;;56.92;16.60;;;;;;;;;;6218771;23;20019;-92
2022/12/01 08:49:29;;;;;;;43.17;15.48;;;;;;;;;;6217524;23;20030;-91
2022/12/01 08:51:55;;;;;;;41.78;16.45;;;;;;;;;;6218847;23;20574;-92
2022/12/01 08:54:21;;;;;;;42.05;15.45;;;;;;;;;;6217928;23;20012;-92
2022/12/01 08:56:47;;;;;;;47.58;15.38;;;;;;;;;;6218980;23;20336;-91
2022/12/01 08:59:13;;;;;;;43.42;16.98;;;;;;;;;;6219450;23;20336;-92
2022/12/01 09:01:51;;;;;;;44.60;17.58;;;;;;;;;;6217439;23;20361;-92
2022/12/01 09:04:24;;;;;;;41.40;16.48;;;;;;;;;;6217438;22;20012;-93
2022/12/01 09:06:58;;;;;;;49.08;16.85;;;;;;;;;;6217115;23;20016;-92
2022/12/01 09:09:27;;;;;;;43.35;16.05;;;;;;;;;;6217007;23;20338;-91
2022/12/01 09:11:53;;;;;;;38.97;15.25;;;;;;;;;;6216049;23;20008;-92
2022/12/01 09:14:20;;;;;;;60.45;22.98;;;;;;;;;;6217566;23;20428;-91
2022/12/01 09:16:46;;;;;;;58.42;23.02;;;;;;;;;;6190792;23;20440;-92
2022/12/01 09:19:13;;;;;;;62.08;24.17;;;;;;;;;;6213389;23;20436;-92
2022/12/01 09:21:42;;;;;;;52.35;19.88;;;;;;;;;;6214008;23;20000;-93
2022/12/01 09:24:10;;;;;;;47.60;18.08;;;;;;;;;;6192015;23;20008;-93
2022/12/01 09:26:36;;;;;;;40.95;15.85;;;;;;;;;;6216870;23;20416;-91
2022/12/01 09:29:03;;;;;;;43.03;16.48;;;;;;;;;;6217292;23;20000;-92
2022/12/01 09:31:30;;;;;;;40.63;16.52;;;;;;;;;;6216753;23;20008;-92
2022/12/01 09:33:57;;;;;;;45.13;16.63;;;;;;;;;;6193295;23;20413;-92
2022/12/01 09:36:23;;;;;;;43.17;16.50;;;;;;;;;;6243159;23;20004;-92
2022/12/01 09:38:49;;;;;;;43.28;16.25;;;;;;;;;;6218337;23;20428;-91
2022/12/01 09:41:15;;;;;;;41.47;15.98;;;;;;;;;;6219590;23;20475;-92
2022/12/01 09:43:44;;;;;;;52.55;16.98;;;;;;;;;;6219212;23;20016;-92
2022/12/01 09:46:17;;;;;;;42.83;17.00;;;;;;;;;;6217770;23;20077;-92
2022/12/01 09:48:45;;;;;;;45.92;17.67;;;;;;;;;;6245134;23;20004;-92
2022/12/01 09:51:21;;;;;;;35.00;15.65;;;;;;;;;;6216591;23;20010;-91
2022/12/01 09:53:51;;;;;;;39.58;16.17;;;;;;;;;;6217601;23;20011;-91
2022/12/01 09:56:22;;;;;;;37.38;16.40;;;;;;;;;;6215975;23;20032;-92
2022/12/01 09:59:07;;;;;;;42.67;17.45;;;;;;;;;;6216949;23;20004;-91
2022/12/01 10:01:35;;;;;;;40.20;16.38;;;;;;;;;;6216596;23;20004;-91
2022/12/01 10:04:21;;;;;;;39.33;15.95;;;;;;;;;;6214731;23;20688;-87
2022/12/01 10:06:47;;;;;;;39.28;17.33;;;;;;;;;;6163452;23;20108;-91
2022/12/01 10:09:36;;;;;;;39.10;15.98;;;;;;;;;;6186146;23;20437;-91
2022/12/01 10:12:07;;;;;;;35.35;16.30;;;;;;;;;;6186639;23;20577;-91
2022/12/01 10:14:35;;;;;;;37.45;16.15;;;;;;;;;;6188107;23;20051;-90
2022/12/01 10:17:06;;;;;;;31.58;15.07;;;;;;;;;;6186810;23;20507;-91
2022/12/01 10:19:45;;;;;;;42.22;18.15;;;;;;;;;;6185862;23;20085;-91
2022/12/01 10:22:44;;;;;;;40.33;17.30;;;;;;;;;;6186093;23;20005;-91
2022/12/01 10:25:28;;;;;;;50.17;20.48;;;;;;;;;;6136028;23;20009;-91
2022/12/01 10:28:06;;;;;;;43.92;19.55;;;;;;;;;;6193140;23;20008;-91
2022/12/01 10:30:45;;;;;;;50.40;20.27;;;;;;;;;;6203339;23;20016;-91
2022/12/01 10:33:14;;;;;;;52.10;20.35;;;;;;;;;;6208733;23;20119;-92
2022/12/01 10:35:41;;;;;;;55.60;21.65;;;;;;;;;;6208755;23;20008;-91
2022/12/01 10:38:12;;;;;;;63.92;22.95;;;;;;;;;;6209465;23;20011;-91
2022/12/01 10:40:50;;;;;;;61.47;22.05;;;;;;;;;;6227440;23;20036;-92
2022/12/01 10:43:16;;;;;;;53.33;21.45;;;;;;;;;;6198967;23;20016;-91
2022/12/01 10:45:50;;;;;;;55.05;21.75;;;;;;;;;;6203472;23;20009;-92
2022/12/01 10:48:52;;;;;;;62.15;22.00;;;;;;;;;;6226121;23;20003;-93
2022/12/01 10:51:38;;;;;;;56.17;22.07;;;;;;;;;;6228755;23;20012;-91
2022/12/01 10:54:12;;;;;;;47.95;20.48;;;;;;;;;;6223885;23;20244;-92
2022/12/01 10:56:40;;;;;;;56.58;22.00;;;;;;;;;;6231534;23;20039;-92
2022/12/01 10:59:19;;;;;;;57.08;21.55;;;;;;;;;;6203968;23;20187;-92
2022/12/01 11:01:47;;;;;;;63.78;23.90;;;;;;;;;;6207780;23;20008;-92
2022/12/01 11:04:32;;;;;;;58.17;23.05;;;;;;;;;;6205156;23;20032;-91
2022/12/01 11:07:01;;;;;;;52.70;21.98;;;;;;;;;;6236679;23;20016;-92
2022/12/01 11:09:41;;;;;;;58.53;22.25;;;;;;;;;;6233874;23;20008;-92
2022/12/01 11:12:12;;;;;;;57.63;22.20;;;;;;;;;;6233748;23;20394;-92
2022/12/01 11:14:52;;;;;;;57.35;23.35;;;;;;;;;;6236775;23;20020;-92
2022/12/01 11:17:29;;;;;;;64.68;24.95;;;;;;;;;;6236115;23;20012;-92
2022/12/01 11:20:16;;;;;;;62.45;23.58;;;;;;;;;;6261225;23;20004;-92
2022/12/01 11:22:45;;;;;;;66.78;23.83;;;;;;;;;;6261729;23;20008;-92
2022/12/01 11:25:19;;;;;;;71.05;25.38;;;;;;;;;;6237210;23;20084;-91
2022/12/01 11:27:50;;;;;;;60.78;23.25;;;;;;;;;;6223754;23;20086;-90
2022/12/01 11:30:24;;;;;;;63.20;21.70;;;;;;;;;;6215502;23;20022;-91
2022/12/01 11:32:54;;;;;;;55.45;19.95;;;;;;;;;;6212621;23;20035;-91
2022/12/01 11:35:23;;;;;;;57.03;21.90;;;;;;;;;;6222799;23;20442;-91
2022/12/01 11:37:54;;;;;;;55.65;21.83;;;;;;;;;;6253355;23;20008;-91
2022/12/01 11:40:20;;;;;;;55.88;21.75;;;;;;;;;;6230571;23;20111;-91
2022/12/01 11:42:51;;;;;;;56.58;22.95;;;;;;;;;;6231273;23;20015;-91
2022/12/01 11:45:20;;;;;;;49.58;21.08;;;;;;;;;;6230106;23;20129;-91
2022/12/01 11:48:01;;;;;;;55.15;23.80;;;;;;;;;;6227085;23;20004;-91
2022/12/01 11:50:29;;;;;;;61.75;24.73;;;;;;;;;;6225222;23;20043;-91
2022/12/01 11:52:55;;;;;;;57.03;25.17;;;;;;;;;;6258698;23;20057;-92
2022/12/01 11:55:25;;;;;;;61.03;25.52;;;;;;;;;;6258978;23;20008;-92
2022/12/01 11:57:55;;;;;;;62.08;26.20;;;;;;;;;;6235291;23;20360;-91
2022/12/01 12:00:34;;;;;;;61.15;25.52;;;;;;;;;;6225566;23;20004;-89
2022/12/01 12:03:19;;;;;;;58.85;24.13;;;;;;;;;;6237746;23;20012;-91
2022/12/01 12:06:03;;;;;;;55.88;23.08;;;;;;;;;;6211383;22;20425;-89
2022/12/01 12:08:55;;;;;;;68.45;25.83;;;;;;;;;;6214752;23;20004;-90
2022/12/01 12:11:23;;;;;;;58.92;24.10;;;;;;;;;;6215091;23;20008;-89
2022/12/01 12:14:08;;;;;;;70.07;24.95;;;;;;;;;;6214867;23;20016;-89
2022/12/01 12:17:03;;;;;;;63.33;25.42;;;;;;;;;;6214000;23;20441;-90
2022/12/01 12:19:29;;;;;;;62.00;24.65;;;;;;;;;;6213688;23;20083;-90
2022/12/01 12:22:13;;;;;;;61.40;24.08;;;;;;;;;;6241168;23;20004;-89
2022/12/01 12:25:01;;;;;;;66.88;25.90;;;;;;;;;;6240806;23;20000;-90
2022/12/01 12:27:49;;;;;;;68.82;25.77;;;;;;;;;;6212490;23;20424;-89
2022/12/01 12:30:20;;;;;;;68.03;25.95;;;;;;;;;;6211860;23;20023;-91
2022/12/01 12:32:46;;;;;;;69.82;24.98;;;;;;;;;;6212518;23;20035;-90
2022/12/01 12:35:29;;;;;;;67.78;26.13;;;;;;;;;;6239383;23;20000;-90
2022/12/01 12:37:58;;;;;;;70.13;27.10;;;;;;;;;;6212294;23;20042;-89
2022/12/01 12:40:28;;;;;;;62.13;25.45;;;;;;;;;;6212774;23;20325;-90
2022/12/01 12:43:13;;;;;;;57.22;26.05;;;;;;;;;;6213164;23;20420;-89
2022/12/01 12:45:45;;;;;;;64.78;24.83;;;;;;;;;;6211314;23;20012;-89
2022/12/01 12:48:14;;;;;;;66.75;26.05;;;;;;;;;;6239974;23;20008;-89
2022/12/01 12:50:55;;;;;;;57.20;23.48;;;;;;;;;;6211205;23;20401;-90
2022/12/01 12:53:23;;;;;;;54.45;22.27;;;;;;;;;;6212405;23;20023;-89
2022/12/01 12:55:51;;;;;;;56.00;22.48;;;;;;;;;;6212158;23;20335;-89
2022/12/01 12:58:20;;;;;;;58.50;22.85;;;;;;;;;;6213927;23;20004;-91
2022/12/01 13:01:05;;;;;;;58.92;22.30;;;;;;;;;;6212134;23;20026;-89
2022/12/01 13:03:49;;;;;;;59.50;22.05;;;;;;;;;;6212835;23;20012;-90
2022/12/01 13:06:22;;;;;;;48.72;20.15;;;;;;;;;;6212677;22;20020;-89
2022/12/01 13:09:14;;;;;;;54.03;21.58;;;;;;;;;;6211397;23;20507;-89
2022/12/01 13:11:51;;;;;;;46.92;20.95;;;;;;;;;;6178527;23;20057;-90
2022/12/01 13:14:17;;;;;;;50.58;21.10;;;;;;;;;;6209028;23;20012;-89
2022/12/01 13:16:44;;;;;;;54.40;21.17;;;;;;;;;;6238646;23;20004;-90
2022/12/01 13:19:13;;;;;;;55.13;20.58;;;;;;;;;;6211120;23;20008;-89
2022/12/01 13:21:41;;;;;;;54.20;22.20;;;;;;;;;;6211323;23;20000;-89
2022/12/01 13:24:10;;;;;;;56.22;22.15;;;;;;;;;;6208990;23;20004;-89
2022/12/01 13:26:37;;;;;;;50.00;19.60;;;;;;;;;;6213234;23;20008;-90
2022/12/01 13:29:05;;;;;;;55.42;23.10;;;;;;;;;;6239000;23;20004;-89
2022/12/01 13:31:44;;;;;;;61.20;22.85;;;;;;;;;;6214612;23;20038;-91
2022/12/01 13:34:20;;;;;;;65.47;23.27;;;;;;;;;;6213344;23;20491;-91
2022/12/01 13:36:50;;;;;;;57.50;22.33;;;;;;;;;;6215129;23;20162;-93
2022/12/01 13:39:26;;;;;;;57.03;22.80;;;;;;;;;;6214248;23;20001;-91
2022/12/01 13:42:16;;;;;;;64.78;24.48;;;;;;;;;;6214134;23;20004;-92
2022/12/01 13:44:44;;;;;;;67.90;25.08;;;;;;;;;;6201577;23;20436;-90
2022/12/01 13:47:10;;;;;;;67.68;23.60;;;;;;;;;;6213732;23;20092;-89
2022/12/01 13:49:43;;;;;;;61.50;24.27;;;;;;;;;;6212955;23;20008;-90
2022/12/01 13:52:21;;;;;;;71.55;26.05;;;;;;;;;;6214837;23;20018;-90
2022/12/01 13:55:03;;;;;;;68.47;26.20;;;;;;;;;;6212829;23;20447;-89
2022/12/01 13:57:31;;;;;;;69.35;27.02;;;;;;;;;;6212850;23;20012;-91
2022/12/01 14:00:00;;;;;;;62.78;23.60;;;;;;;;;;6214373;23;20356;-90
2022/12/01 14:02:27;;;;;;;68.38;25.80;;;;;;;;;;6239260;23;20091;-90
2022/12/01 14:04:53;;;;;;;70.60;26.23;;;;;;;;;;6213680;23;20008;-90
2022/12/01 14:07:40;;;;;;;70.57;24.60;;;;;;;;;;6214062;22;20027;-90
2022/12/01 14:10:16;;;;;;;69.13;27.10;;;;;;;;;;6215573;23;20490;-90
2022/12/01 14:12:44;;;;;;;66.65;25.48;;;;;;;;;;6214512;23;20004;-90
2022/12/01 14:15:29;;;;;;;72.13;25.67;;;;;;;;;;6214216;23;20031;-91
2022/12/01 14:18:26;;;;;;;73.10;27.98;;;;;;;;;;6213524;23;20008;-90
2022/12/01 14:20:52;;;;;;;;;;;;;;;;;;6196194;23;20000;-91
2022/12/01 14:23:18;;;;;;;73.78;25.80;;;;;;;;;;6213292;23;20231;-90
2022/12/01 14:25:56;;;;;;;71.72;25.50;;;;;;;;;;6212357;23;20069;-90
2022/12/01 14:28:43;;;;;;;65.28;24.80;;;;;;;;;;6215105;23;20008;-91
2022/12/01 14:31:13;;;;;;;78.63;26.00;;;;;;;;;;6233776;23;20216;-90
2022/12/01 14:33:49;;;;;;;73.35;26.25;;;;;;;;;;6240026;23;20043;-90